Aviation Digital Data Service (ADDS)

Output produced by METARs form (0219 UTC 23 April 2021)
found at http://aviationweather.gov/metar/data/
 
LIRF 230150Z 04003KT 7000 NSC 07/07 Q1017 NOSIG
LIRF 230120Z 35003KT 7000 NSC 07/07 Q1017 NOSIG
TAF LIRF 222300Z 2300/2406 06006KT 9999 SCT030 
     TEMPO 2300/2305 3000 BR 
     BECMG 
     TEMPO 2310/2313 RA 2311/2313 28012KT 
     BECMG 2318/2320 06008KT